sensor_id;sensor_type;location;lat;lon;timestamp;P1;durP1;ratioP1;P2;durP2;ratioP2
46318;SDS011;32042;50.916;2.926;2023-06-26T00:00:46;7.90;;;3.83;;
46318;SDS011;32042;50.916;2.926;2023-06-26T00:03:12;7.18;;;3.60;;
46318;SDS011;32042;50.916;2.926;2023-06-26T00:05:40;9.35;;;3.17;;
46318;SDS011;32042;50.916;2.926;2023-06-26T00:08:06;9.70;;;4.28;;
46318;SDS011;32042;50.916;2.926;2023-06-26T00:10:32;8.13;;;3.63;;
46318;SDS011;32042;50.916;2.926;2023-06-26T00:12:58;6.03;;;3.53;;
46318;SDS011;32042;50.916;2.926;2023-06-26T00:15:24;9.25;;;4.38;;
46318;SDS011;32042;50.916;2.926;2023-06-26T00:17:50;10.98;;;3.85;;
46318;SDS011;32042;50.916;2.926;2023-06-26T00:20:16;13.95;;;4.43;;
46318;SDS011;32042;50.916;2.926;2023-06-26T00:22:43;12.13;;;3.90;;
46318;SDS011;32042;50.916;2.926;2023-06-26T00:25:10;8.50;;;3.72;;
46318;SDS011;32042;50.916;2.926;2023-06-26T00:27:35;11.50;;;4.07;;
46318;SDS011;32042;50.916;2.926;2023-06-26T00:30:01;8.65;;;4.90;;
46318;SDS011;32042;50.916;2.926;2023-06-26T00:32:27;8.88;;;3.97;;
46318;SDS011;32042;50.916;2.926;2023-06-26T00:34:53;10.00;;;4.07;;
46318;SDS011;32042;50.916;2.926;2023-06-26T00:37:19;9.45;;;4.43;;
46318;SDS011;32042;50.916;2.926;2023-06-26T00:39:46;10.15;;;4.35;;
46318;SDS011;32042;50.916;2.926;2023-06-26T00:42:12;14.23;;;4.88;;
46318;SDS011;32042;50.916;2.926;2023-06-26T00:44:37;14.30;;;4.93;;
46318;SDS011;32042;50.916;2.926;2023-06-26T00:47:03;8.95;;;4.30;;
46318;SDS011;32042;50.916;2.926;2023-06-26T00:49:29;13.30;;;4.20;;
46318;SDS011;32042;50.916;2.926;2023-06-26T00:51:55;13.27;;;4.82;;
46318;SDS011;32042;50.916;2.926;2023-06-26T00:54:21;9.10;;;4.65;;
46318;SDS011;32042;50.916;2.926;2023-06-26T00:56:47;16.35;;;4.82;;
46318;SDS011;32042;50.916;2.926;2023-06-26T00:59:13;7.97;;;4.32;;
46318;SDS011;32042;50.916;2.926;2023-06-26T01:01:39;13.32;;;4.70;;
46318;SDS011;32042;50.916;2.926;2023-06-26T01:04:05;11.77;;;4.43;;
46318;SDS011;32042;50.916;2.926;2023-06-26T01:06:31;14.15;;;5.00;;
46318;SDS011;32042;50.916;2.926;2023-06-26T01:09:01;10.43;;;5.03;;
46318;SDS011;32042;50.916;2.926;2023-06-26T01:11:28;14.68;;;5.47;;
46318;SDS011;32042;50.916;2.926;2023-06-26T01:13:54;13.63;;;5.63;;
46318;SDS011;32042;50.916;2.926;2023-06-26T01:16:22;14.23;;;5.22;;
46318;SDS011;32042;50.916;2.926;2023-06-26T01:18:49;19.23;;;5.10;;
46318;SDS011;32042;50.916;2.926;2023-06-26T01:21:15;14.50;;;5.22;;
46318;SDS011;32042;50.916;2.926;2023-06-26T01:24:02;11.05;;;5.30;;
46318;SDS011;32042;50.916;2.926;2023-06-26T01:26:35;13.95;;;5.10;;
46318;SDS011;32042;50.916;2.926;2023-06-26T01:29:02;14.55;;;5.70;;
46318;SDS011;32042;50.916;2.926;2023-06-26T01:31:31;13.48;;;5.55;;
46318;SDS011;32042;50.916;2.926;2023-06-26T01:33:58;13.85;;;5.00;;
46318;SDS011;32042;50.916;2.926;2023-06-26T01:36:25;17.60;;;6.97;;
46318;SDS011;32042;50.916;2.926;2023-06-26T01:38:52;19.73;;;5.43;;
46318;SDS011;32042;50.916;2.926;2023-06-26T01:41:18;14.60;;;5.32;;
46318;SDS011;32042;50.916;2.926;2023-06-26T01:46:16;21.25;;;6.13;;
46318;SDS011;32042;50.916;2.926;2023-06-26T01:48:49;14.90;;;5.15;;
46318;SDS011;32042;50.916;2.926;2023-06-26T01:51:20;13.85;;;4.88;;
46318;SDS011;32042;50.916;2.926;2023-06-26T01:53:49;16.42;;;4.63;;
46318;SDS011;32042;50.916;2.926;2023-06-26T01:56:19;13.43;;;4.82;;
46318;SDS011;32042;50.916;2.926;2023-06-26T01:58:47;13.35;;;4.75;;
46318;SDS011;32042;50.916;2.926;2023-06-26T02:01:14;18.63;;;5.55;;
46318;SDS011;32042;50.916;2.926;2023-06-26T02:03:40;11.88;;;4.93;;
46318;SDS011;32042;50.916;2.926;2023-06-26T02:06:06;10.85;;;4.20;;
46318;SDS011;32042;50.916;2.926;2023-06-26T02:08:31;14.20;;;4.70;;
46318;SDS011;32042;50.916;2.926;2023-06-26T02:10:57;12.65;;;5.03;;
46318;SDS011;32042;50.916;2.926;2023-06-26T02:13:23;13.27;;;4.45;;
46318;SDS011;32042;50.916;2.926;2023-06-26T02:15:48;9.00;;;3.90;;
46318;SDS011;32042;50.916;2.926;2023-06-26T02:18:14;15.02;;;4.25;;
46318;SDS011;32042;50.916;2.926;2023-06-26T02:20:40;15.95;;;4.05;;
46318;SDS011;32042;50.916;2.926;2023-06-26T02:23:05;10.65;;;3.53;;
46318;SDS011;32042;50.916;2.926;2023-06-26T02:25:31;13.48;;;4.15;;
46318;SDS011;32042;50.916;2.926;2023-06-26T02:27:57;11.50;;;3.47;;
46318;SDS011;32042;50.916;2.926;2023-06-26T02:30:23;16.90;;;4.55;;
46318;SDS011;32042;50.916;2.926;2023-06-26T02:32:49;10.98;;;3.75;;
46318;SDS011;32042;50.916;2.926;2023-06-26T02:35:16;11.57;;;3.00;;
46318;SDS011;32042;50.916;2.926;2023-06-26T02:37:43;11.52;;;3.17;;
46318;SDS011;32042;50.916;2.926;2023-06-26T02:40:10;10.20;;;2.97;;
46318;SDS011;32042;50.916;2.926;2023-06-26T02:42:36;10.10;;;2.67;;
46318;SDS011;32042;50.916;2.926;2023-06-26T02:45:03;10.25;;;3.00;;
46318;SDS011;32042;50.916;2.926;2023-06-26T02:47:30;9.13;;;2.50;;
46318;SDS011;32042;50.916;2.926;2023-06-26T02:49:57;10.75;;;2.40;;
46318;SDS011;32042;50.916;2.926;2023-06-26T02:52:24;6.22;;;2.58;;
46318;SDS011;32042;50.916;2.926;2023-06-26T02:54:50;10.25;;;3.22;;
46318;SDS011;32042;50.916;2.926;2023-06-26T02:57:16;15.80;;;2.60;;
46318;SDS011;32042;50.916;2.926;2023-06-26T02:59:42;7.05;;;2.88;;
46318;SDS011;32042;50.916;2.926;2023-06-26T03:02:08;7.18;;;2.28;;
46318;SDS011;32042;50.916;2.926;2023-06-26T03:04:33;8.68;;;2.00;;
46318;SDS011;32042;50.916;2.926;2023-06-26T03:07:02;5.10;;;1.95;;
46318;SDS011;32042;50.916;2.926;2023-06-26T03:09:28;4.78;;;2.03;;
46318;SDS011;32042;50.916;2.926;2023-06-26T03:11:54;6.70;;;2.20;;
46318;SDS011;32042;50.916;2.926;2023-06-26T03:14:20;7.32;;;2.05;;
46318;SDS011;32042;50.916;2.926;2023-06-26T03:16:46;6.28;;;1.70;;
46318;SDS011;32042;50.916;2.926;2023-06-26T03:19:12;9.35;;;1.92;;
46318;SDS011;32042;50.916;2.926;2023-06-26T03:21:38;8.57;;;2.00;;
46318;SDS011;32042;50.916;2.926;2023-06-26T03:24:04;3.42;;;1.80;;
46318;SDS011;32042;50.916;2.926;2023-06-26T03:26:30;5.72;;;1.52;;
46318;SDS011;32042;50.916;2.926;2023-06-26T03:28:55;4.88;;;2.03;;
46318;SDS011;32042;50.916;2.926;2023-06-26T03:31:21;6.63;;;1.60;;
46318;SDS011;32042;50.916;2.926;2023-06-26T03:33:47;5.63;;;2.15;;
46318;SDS011;32042;50.916;2.926;2023-06-26T03:36:12;3.55;;;1.10;;
46318;SDS011;32042;50.916;2.926;2023-06-26T03:38:38;3.55;;;1.70;;
46318;SDS011;32042;50.916;2.926;2023-06-26T03:41:04;5.93;;;1.42;;
46318;SDS011;32042;50.916;2.926;2023-06-26T03:43:30;6.65;;;1.63;;
46318;SDS011;32042;50.916;2.926;2023-06-26T03:45:55;3.40;;;1.00;;
46318;SDS011;32042;50.916;2.926;2023-06-26T03:48:21;5.22;;;1.63;;
46318;SDS011;32042;50.916;2.926;2023-06-26T03:50:47;2.80;;;1.35;;
46318;SDS011;32042;50.916;2.926;2023-06-26T03:53:13;6.65;;;1.65;;
46318;SDS011;32042;50.916;2.926;2023-06-26T03:55:38;5.57;;;1.70;;
46318;SDS011;32042;50.916;2.926;2023-06-26T03:58:04;6.40;;;1.52;;
46318;SDS011;32042;50.916;2.926;2023-06-26T04:00:30;5.97;;;1.55;;
46318;SDS011;32042;50.916;2.926;2023-06-26T04:02:56;5.75;;;1.02;;
46318;SDS011;32042;50.916;2.926;2023-06-26T04:05:22;5.28;;;1.67;;
46318;SDS011;32042;50.916;2.926;2023-06-26T04:07:51;6.18;;;1.33;;
46318;SDS011;32042;50.916;2.926;2023-06-26T04:10:18;4.13;;;1.30;;
46318;SDS011;32042;50.916;2.926;2023-06-26T04:12:46;3.92;;;1.20;;
46318;SDS011;32042;50.916;2.926;2023-06-26T04:15:12;5.40;;;1.25;;
46318;SDS011;32042;50.916;2.926;2023-06-26T04:17:37;1.92;;;1.23;;
46318;SDS011;32042;50.916;2.926;2023-06-26T04:20:03;3.38;;;1.17;;
46318;SDS011;32042;50.916;2.926;2023-06-26T04:22:31;1.97;;;1.17;;
46318;SDS011;32042;50.916;2.926;2023-06-26T04:24:57;2.45;;;1.50;;
46318;SDS011;32042;50.916;2.926;2023-06-26T04:27:23;5.32;;;1.23;;
46318;SDS011;32042;50.916;2.926;2023-06-26T04:29:49;5.53;;;1.20;;
46318;SDS011;32042;50.916;2.926;2023-06-26T04:32:14;3.05;;;1.67;;
46318;SDS011;32042;50.916;2.926;2023-06-26T04:34:40;2.28;;;0.90;;
46318;SDS011;32042;50.916;2.926;2023-06-26T04:37:09;5.37;;;1.60;;
46318;SDS011;32042;50.916;2.926;2023-06-26T04:39:35;1.70;;;0.97;;
46318;SDS011;32042;50.916;2.926;2023-06-26T04:42:02;2.90;;;1.00;;
46318;SDS011;32042;50.916;2.926;2023-06-26T04:44:28;2.30;;;0.90;;
46318;SDS011;32042;50.916;2.926;2023-06-26T04:46:54;3.95;;;1.35;;
46318;SDS011;32042;50.916;2.926;2023-06-26T04:49:20;3.20;;;1.10;;
46318;SDS011;32042;50.916;2.926;2023-06-26T04:51:45;4.05;;;1.17;;
46318;SDS011;32042;50.916;2.926;2023-06-26T04:54:11;3.53;;;1.20;;
46318;SDS011;32042;50.916;2.926;2023-06-26T04:56:37;3.00;;;1.27;;
46318;SDS011;32042;50.916;2.926;2023-06-26T04:59:05;3.80;;;1.45;;
46318;SDS011;32042;50.916;2.926;2023-06-26T05:01:31;3.78;;;1.33;;
46318;SDS011;32042;50.916;2.926;2023-06-26T05:03:57;3.08;;;1.30;;
46318;SDS011;32042;50.916;2.926;2023-06-26T05:06:23;3.80;;;1.15;;
46318;SDS011;32042;50.916;2.926;2023-06-26T05:08:49;4.25;;;1.73;;
46318;SDS011;32042;50.916;2.926;2023-06-26T05:11:15;3.20;;;0.98;;
46318;SDS011;32042;50.916;2.926;2023-06-26T05:13:41;3.60;;;1.10;;
46318;SDS011;32042;50.916;2.926;2023-06-26T05:16:07;6.05;;;1.35;;
46318;SDS011;32042;50.916;2.926;2023-06-26T05:18:34;2.30;;;0.80;;
46318;SDS011;32042;50.916;2.926;2023-06-26T05:21:01;2.60;;;1.13;;
46318;SDS011;32042;50.916;2.926;2023-06-26T05:23:27;4.30;;;1.15;;
46318;SDS011;32042;50.916;2.926;2023-06-26T05:25:56;4.32;;;1.40;;
46318;SDS011;32042;50.916;2.926;2023-06-26T05:28:23;4.20;;;1.27;;
46318;SDS011;32042;50.916;2.926;2023-06-26T05:30:50;3.60;;;1.27;;
46318;SDS011;32042;50.916;2.926;2023-06-26T05:33:17;4.53;;;2.08;;
46318;SDS011;32042;50.916;2.926;2023-06-26T05:35:45;3.28;;;1.38;;
46318;SDS011;32042;50.916;2.926;2023-06-26T05:38:12;2.22;;;0.90;;
46318;SDS011;32042;50.916;2.926;2023-06-26T05:40:38;2.77;;;1.10;;
46318;SDS011;32042;50.916;2.926;2023-06-26T05:43:08;3.75;;;1.15;;
46318;SDS011;32042;50.916;2.926;2023-06-26T05:45:33;9.48;;;1.50;;
46318;SDS011;32042;50.916;2.926;2023-06-26T05:47:59;4.50;;;1.20;;
46318;SDS011;32042;50.916;2.926;2023-06-26T05:50:26;3.25;;;1.30;;
46318;SDS011;32042;50.916;2.926;2023-06-26T05:52:53;6.90;;;1.40;;
46318;SDS011;32042;50.916;2.926;2023-06-26T05:55:19;6.37;;;1.20;;
46318;SDS011;32042;50.916;2.926;2023-06-26T05:57:45;5.40;;;1.13;;
46318;SDS011;32042;50.916;2.926;2023-06-26T06:00:12;4.70;;;1.70;;
46318;SDS011;32042;50.916;2.926;2023-06-26T06:02:38;4.65;;;1.10;;
46318;SDS011;32042;50.916;2.926;2023-06-26T06:05:05;3.45;;;1.33;;
46318;SDS011;32042;50.916;2.926;2023-06-26T06:07:32;5.95;;;2.22;;
46318;SDS011;32042;50.916;2.926;2023-06-26T06:09:58;4.47;;;1.30;;
46318;SDS011;32042;50.916;2.926;2023-06-26T06:12:24;7.82;;;1.38;;
46318;SDS011;32042;50.916;2.926;2023-06-26T06:14:51;4.28;;;1.30;;
46318;SDS011;32042;50.916;2.926;2023-06-26T06:17:17;4.95;;;1.50;;
46318;SDS011;32042;50.916;2.926;2023-06-26T06:19:43;5.05;;;1.40;;
46318;SDS011;32042;50.916;2.926;2023-06-26T06:22:09;3.88;;;1.85;;
46318;SDS011;32042;50.916;2.926;2023-06-26T06:24:35;7.93;;;1.42;;
46318;SDS011;32042;50.916;2.926;2023-06-26T06:27:01;1.92;;;1.25;;
46318;SDS011;32042;50.916;2.926;2023-06-26T06:29:27;2.03;;;1.25;;
46318;SDS011;32042;50.916;2.926;2023-06-26T06:31:53;3.97;;;1.60;;
46318;SDS011;32042;50.916;2.926;2023-06-26T06:34:18;3.95;;;1.50;;
46318;SDS011;32042;50.916;2.926;2023-06-26T06:36:44;6.85;;;1.50;;
46318;SDS011;32042;50.916;2.926;2023-06-26T06:39:09;3.83;;;1.25;;
46318;SDS011;32042;50.916;2.926;2023-06-26T06:41:35;4.13;;;1.60;;
46318;SDS011;32042;50.916;2.926;2023-06-26T06:44:01;5.75;;;1.70;;
46318;SDS011;32042;50.916;2.926;2023-06-26T06:46:26;4.70;;;1.40;;
46318;SDS011;32042;50.916;2.926;2023-06-26T06:48:53;4.72;;;1.52;;
46318;SDS011;32042;50.916;2.926;2023-06-26T06:51:18;7.78;;;1.50;;
46318;SDS011;32042;50.916;2.926;2023-06-26T06:53:44;3.90;;;1.40;;
46318;SDS011;32042;50.916;2.926;2023-06-26T06:56:10;6.43;;;1.20;;
46318;SDS011;32042;50.916;2.926;2023-06-26T06:58:35;3.63;;;1.67;;
46318;SDS011;32042;50.916;2.926;2023-06-26T07:01:01;3.45;;;1.48;;
46318;SDS011;32042;50.916;2.926;2023-06-26T07:03:28;2.28;;;1.23;;
46318;SDS011;32042;50.916;2.926;2023-06-26T07:05:54;7.18;;;1.55;;
46318;SDS011;32042;50.916;2.926;2023-06-26T07:08:20;7.00;;;1.75;;
46318;SDS011;32042;50.916;2.926;2023-06-26T07:10:46;2.13;;;1.40;;
46318;SDS011;32042;50.916;2.926;2023-06-26T07:13:12;2.72;;;1.25;;
46318;SDS011;32042;50.916;2.926;2023-06-26T07:15:37;5.13;;;1.27;;
46318;SDS011;32042;50.916;2.926;2023-06-26T07:18:03;4.25;;;1.13;;
46318;SDS011;32042;50.916;2.926;2023-06-26T07:20:29;2.60;;;1.60;;
46318;SDS011;32042;50.916;2.926;2023-06-26T07:22:55;4.70;;;1.40;;
46318;SDS011;32042;50.916;2.926;2023-06-26T07:25:20;2.72;;;1.30;;
46318;SDS011;32042;50.916;2.926;2023-06-26T07:27:46;1.50;;;1.20;;
46318;SDS011;32042;50.916;2.926;2023-06-26T07:30:12;4.82;;;1.50;;
46318;SDS011;32042;50.916;2.926;2023-06-26T07:32:38;3.33;;;1.50;;
46318;SDS011;32042;50.916;2.926;2023-06-26T07:35:05;6.53;;;1.55;;
46318;SDS011;32042;50.916;2.926;2023-06-26T07:37:31;4.85;;;1.63;;
46318;SDS011;32042;50.916;2.926;2023-06-26T07:39:57;5.72;;;1.70;;
46318;SDS011;32042;50.916;2.926;2023-06-26T07:42:23;3.63;;;1.30;;
46318;SDS011;32042;50.916;2.926;2023-06-26T07:44:48;5.18;;;1.30;;
46318;SDS011;32042;50.916;2.926;2023-06-26T07:47:14;7.45;;;1.70;;
46318;SDS011;32042;50.916;2.926;2023-06-26T07:49:40;5.88;;;1.90;;
46318;SDS011;32042;50.916;2.926;2023-06-26T07:52:09;6.72;;;1.70;;
46318;SDS011;32042;50.916;2.926;2023-06-26T07:54:37;3.72;;;1.48;;
46318;SDS011;32042;50.916;2.926;2023-06-26T07:57:04;6.15;;;1.80;;
46318;SDS011;32042;50.916;2.926;2023-06-26T07:59:34;3.22;;;1.10;;
46318;SDS011;32042;50.916;2.926;2023-06-26T08:02:00;2.67;;;1.45;;
46318;SDS011;32042;50.916;2.926;2023-06-26T08:04:27;3.33;;;1.35;;
46318;SDS011;32042;50.916;2.926;2023-06-26T08:06:56;6.18;;;1.75;;
46318;SDS011;32042;50.916;2.926;2023-06-26T08:09:24;3.00;;;1.50;;
46318;SDS011;32042;50.916;2.926;2023-06-26T08:11:51;4.55;;;1.42;;
46318;SDS011;32042;50.916;2.926;2023-06-26T08:14:18;4.65;;;1.42;;
46318;SDS011;32042;50.916;2.926;2023-06-26T08:16:44;3.22;;;1.30;;
46318;SDS011;32042;50.916;2.926;2023-06-26T08:19:11;6.40;;;1.35;;
46318;SDS011;32042;50.916;2.926;2023-06-26T08:21:38;3.80;;;1.58;;
46318;SDS011;32042;50.916;2.926;2023-06-26T08:24:05;2.88;;;0.98;;
46318;SDS011;32042;50.916;2.926;2023-06-26T08:26:31;2.00;;;1.38;;
46318;SDS011;32042;50.916;2.926;2023-06-26T08:28:57;2.22;;;1.17;;
46318;SDS011;32042;50.916;2.926;2023-06-26T08:31:23;3.17;;;1.05;;
46318;SDS011;32042;50.916;2.926;2023-06-26T08:33:49;1.60;;;1.20;;
46318;SDS011;32042;50.916;2.926;2023-06-26T08:36:14;5.90;;;1.20;;
46318;SDS011;32042;50.916;2.926;2023-06-26T08:38:40;2.00;;;1.10;;
46318;SDS011;32042;50.916;2.926;2023-06-26T08:41:09;3.53;;;1.38;;
46318;SDS011;32042;50.916;2.926;2023-06-26T08:43:35;3.85;;;1.13;;
46318;SDS011;32042;50.916;2.926;2023-06-26T08:46:02;2.30;;;1.02;;
46318;SDS011;32042;50.916;2.926;2023-06-26T08:48:31;3.78;;;1.13;;
46318;SDS011;32042;50.916;2.926;2023-06-26T08:51:00;2.08;;;0.95;;
46318;SDS011;32042;50.916;2.926;2023-06-26T08:53:35;6.65;;;1.38;;
46318;SDS011;32042;50.916;2.926;2023-06-26T08:56:13;2.65;;;1.20;;
46318;SDS011;32042;50.916;2.926;2023-06-26T08:58:42;3.20;;;1.10;;
46318;SDS011;32042;50.916;2.926;2023-06-26T09:01:08;3.53;;;1.27;;
46318;SDS011;32042;50.916;2.926;2023-06-26T09:03:35;2.40;;;1.15;;
46318;SDS011;32042;50.916;2.926;2023-06-26T09:06:02;6.68;;;1.23;;
46318;SDS011;32042;50.916;2.926;2023-06-26T09:08:27;2.72;;;1.20;;
46318;SDS011;32042;50.916;2.926;2023-06-26T09:10:53;3.95;;;1.38;;
46318;SDS011;32042;50.916;2.926;2023-06-26T09:13:19;2.80;;;1.45;;
46318;SDS011;32042;50.916;2.926;2023-06-26T09:15:45;2.58;;;0.80;;
46318;SDS011;32042;50.916;2.926;2023-06-26T09:18:11;6.30;;;0.98;;
46318;SDS011;32042;50.916;2.926;2023-06-26T09:20:38;2.15;;;0.90;;
46318;SDS011;32042;50.916;2.926;2023-06-26T09:23:03;3.03;;;1.20;;
46318;SDS011;32042;50.916;2.926;2023-06-26T09:25:30;6.28;;;0.90;;
46318;SDS011;32042;50.916;2.926;2023-06-26T09:27:56;2.75;;;1.45;;
46318;SDS011;32042;50.916;2.926;2023-06-26T09:30:22;3.90;;;1.30;;
46318;SDS011;32042;50.916;2.926;2023-06-26T09:32:48;2.70;;;1.15;;
46318;SDS011;32042;50.916;2.926;2023-06-26T09:35:15;3.42;;;1.00;;
46318;SDS011;32042;50.916;2.926;2023-06-26T09:37:42;3.20;;;0.93;;
46318;SDS011;32042;50.916;2.926;2023-06-26T09:40:08;1.83;;;1.17;;
46318;SDS011;32042;50.916;2.926;2023-06-26T09:42:34;2.83;;;1.10;;
46318;SDS011;32042;50.916;2.926;2023-06-26T09:45:01;2.75;;;0.93;;
46318;SDS011;32042;50.916;2.926;2023-06-26T09:47:29;3.72;;;1.00;;
46318;SDS011;32042;50.916;2.926;2023-06-26T09:49:56;4.32;;;1.10;;
46318;SDS011;32042;50.916;2.926;2023-06-26T09:52:25;2.47;;;0.85;;
46318;SDS011;32042;50.916;2.926;2023-06-26T09:54:52;4.32;;;1.42;;
46318;SDS011;32042;50.916;2.926;2023-06-26T09:57:35;3.85;;;1.35;;
46318;SDS011;32042;50.916;2.926;2023-06-26T10:00:04;3.10;;;0.80;;
46318;SDS011;32042;50.916;2.926;2023-06-26T10:02:32;2.65;;;1.00;;
46318;SDS011;32042;50.916;2.926;2023-06-26T10:04:59;2.20;;;0.82;;
46318;SDS011;32042;50.916;2.926;2023-06-26T10:07:24;4.65;;;1.15;;
46318;SDS011;32042;50.916;2.926;2023-06-26T10:09:51;3.05;;;1.10;;
46318;SDS011;32042;50.916;2.926;2023-06-26T10:12:25;1.63;;;0.77;;
46318;SDS011;32042;50.916;2.926;2023-06-26T10:14:53;1.48;;;0.82;;
46318;SDS011;32042;50.916;2.926;2023-06-26T10:17:22;2.92;;;0.80;;
46318;SDS011;32042;50.916;2.926;2023-06-26T10:19:51;3.63;;;1.00;;
46318;SDS011;32042;50.916;2.926;2023-06-26T10:22:19;6.25;;;1.00;;
46318;SDS011;32042;50.916;2.926;2023-06-26T10:24:47;6.03;;;1.05;;
46318;SDS011;32042;50.916;2.926;2023-06-26T10:27:16;0.82;;;0.77;;
46318;SDS011;32042;50.916;2.926;2023-06-26T10:29:47;2.20;;;0.82;;
46318;SDS011;32042;50.916;2.926;2023-06-26T10:32:16;1.67;;;0.70;;
46318;SDS011;32042;50.916;2.926;2023-06-26T10:34:44;2.10;;;1.00;;
46318;SDS011;32042;50.916;2.926;2023-06-26T10:37:10;2.28;;;0.52;;
46318;SDS011;32042;50.916;2.926;2023-06-26T10:39:47;4.68;;;1.08;;
46318;SDS011;32042;50.916;2.926;2023-06-26T10:42:17;3.33;;;0.90;;
46318;SDS011;32042;50.916;2.926;2023-06-26T10:44:46;2.15;;;1.00;;
46318;SDS011;32042;50.916;2.926;2023-06-26T10:47:31;2.67;;;0.90;;
46318;SDS011;32042;50.916;2.926;2023-06-26T10:52:43;1.70;;;0.85;;
46318;SDS011;32042;50.916;2.926;2023-06-26T10:55:09;1.10;;;0.90;;
46318;SDS011;32042;50.916;2.926;2023-06-26T10:57:38;2.85;;;0.90;;
46318;SDS011;32042;50.916;2.926;2023-06-26T11:00:10;1.10;;;0.70;;
46318;SDS011;32042;50.916;2.926;2023-06-26T11:02:48;2.63;;;0.75;;
46318;SDS011;32042;50.916;2.926;2023-06-26T11:05:24;4.05;;;1.15;;
46318;SDS011;32042;50.916;2.926;2023-06-26T11:08:09;2.92;;;1.10;;
46318;SDS011;32042;50.916;2.926;2023-06-26T11:10:53;4.53;;;0.98;;
46318;SDS011;32042;50.916;2.926;2023-06-26T11:13:24;5.03;;;1.08;;
46318;SDS011;32042;50.916;2.926;2023-06-26T11:15:52;3.10;;;0.70;;
46318;SDS011;32042;50.916;2.926;2023-06-26T11:18:21;2.25;;;1.10;;
46318;SDS011;32042;50.916;2.926;2023-06-26T11:20:49;2.33;;;1.10;;
46318;SDS011;32042;50.916;2.926;2023-06-26T11:23:14;2.33;;;0.90;;
46318;SDS011;32042;50.916;2.926;2023-06-26T11:25:47;2.20;;;0.82;;
46318;SDS011;32042;50.916;2.926;2023-06-26T11:28:13;4.45;;;0.98;;
46318;SDS011;32042;50.916;2.926;2023-06-26T11:30:38;2.08;;;1.10;;
46318;SDS011;32042;50.916;2.926;2023-06-26T11:33:07;1.27;;;0.80;;
46318;SDS011;32042;50.916;2.926;2023-06-26T11:35:34;2.08;;;0.80;;
46318;SDS011;32042;50.916;2.926;2023-06-26T11:38:00;1.65;;;0.90;;
46318;SDS011;32042;50.916;2.926;2023-06-26T11:40:34;1.73;;;0.77;;
46318;SDS011;32042;50.916;2.926;2023-06-26T11:43:02;2.17;;;0.80;;
46318;SDS011;32042;50.916;2.926;2023-06-26T11:45:28;6.55;;;0.82;;
46318;SDS011;32042;50.916;2.926;2023-06-26T11:47:56;1.95;;;0.73;;
46318;SDS011;32042;50.916;2.926;2023-06-26T11:50:27;2.00;;;1.05;;
46318;SDS011;32042;50.916;2.926;2023-06-26T11:52:56;1.63;;;0.85;;
46318;SDS011;32042;50.916;2.926;2023-06-26T11:55:24;3.90;;;1.52;;
46318;SDS011;32042;50.916;2.926;2023-06-26T11:57:52;3.80;;;1.30;;
46318;SDS011;32042;50.916;2.926;2023-06-26T12:00:19;2.90;;;1.15;;
46318;SDS011;32042;50.916;2.926;2023-06-26T12:02:45;2.42;;;1.30;;
46318;SDS011;32042;50.916;2.926;2023-06-26T12:05:12;3.83;;;1.10;;
46318;SDS011;32042;50.916;2.926;2023-06-26T12:07:40;2.25;;;1.20;;
46318;SDS011;32042;50.916;2.926;2023-06-26T12:10:11;5.57;;;1.05;;
46318;SDS011;32042;50.916;2.926;2023-06-26T12:12:37;5.20;;;0.90;;
46318;SDS011;32042;50.916;2.926;2023-06-26T12:15:04;2.88;;;1.10;;
46318;SDS011;32042;50.916;2.926;2023-06-26T12:17:32;3.47;;;0.80;;
46318;SDS011;32042;50.916;2.926;2023-06-26T12:19:57;2.83;;;1.60;;
46318;SDS011;32042;50.916;2.926;2023-06-26T12:22:23;4.07;;;1.35;;
46318;SDS011;32042;50.916;2.926;2023-06-26T12:24:49;2.28;;;0.90;;
46318;SDS011;32042;50.916;2.926;2023-06-26T12:27:15;1.58;;;0.90;;
46318;SDS011;32042;50.916;2.926;2023-06-26T12:29:49;3.85;;;1.38;;
46318;SDS011;32042;50.916;2.926;2023-06-26T12:32:17;2.88;;;0.98;;
46318;SDS011;32042;50.916;2.926;2023-06-26T12:34:46;4.90;;;1.00;;
46318;SDS011;32042;50.916;2.926;2023-06-26T12:37:15;3.60;;;1.05;;
46318;SDS011;32042;50.916;2.926;2023-06-26T12:39:51;3.45;;;1.02;;
46318;SDS011;32042;50.916;2.926;2023-06-26T12:42:26;1.77;;;0.90;;
46318;SDS011;32042;50.916;2.926;2023-06-26T12:44:53;3.17;;;1.00;;
46318;SDS011;32042;50.916;2.926;2023-06-26T12:47:25;5.60;;;0.88;;
46318;SDS011;32042;50.916;2.926;2023-06-26T12:49:52;3.67;;;1.00;;
46318;SDS011;32042;50.916;2.926;2023-06-26T12:52:18;2.83;;;0.98;;
46318;SDS011;32042;50.916;2.926;2023-06-26T12:54:45;1.92;;;0.80;;
46318;SDS011;32042;50.916;2.926;2023-06-26T12:57:12;3.75;;;1.10;;
46318;SDS011;32042;50.916;2.926;2023-06-26T12:59:41;2.25;;;0.98;;
46318;SDS011;32042;50.916;2.926;2023-06-26T13:02:07;3.50;;;1.13;;
46318;SDS011;32042;50.916;2.926;2023-06-26T13:04:33;5.32;;;1.00;;
46318;SDS011;32042;50.916;2.926;2023-06-26T13:07:00;3.22;;;0.70;;
46318;SDS011;32042;50.916;2.926;2023-06-26T13:09:26;2.10;;;0.80;;
46318;SDS011;32042;50.916;2.926;2023-06-26T13:11:58;3.00;;;0.80;;
46318;SDS011;32042;50.916;2.926;2023-06-26T13:14:24;0.65;;;0.60;;
46318;SDS011;32042;50.916;2.926;2023-06-26T13:16:49;5.18;;;1.20;;
46318;SDS011;32042;50.916;2.926;2023-06-26T13:19:15;1.80;;;0.93;;
46318;SDS011;32042;50.916;2.926;2023-06-26T13:21:41;3.63;;;1.08;;
46318;SDS011;32042;50.916;2.926;2023-06-26T13:24:07;8.38;;;1.20;;
46318;SDS011;32042;50.916;2.926;2023-06-26T13:26:33;4.88;;;1.13;;
46318;SDS011;32042;50.916;2.926;2023-06-26T13:28:59;0.85;;;0.80;;
46318;SDS011;32042;50.916;2.926;2023-06-26T13:31:24;2.72;;;1.00;;
46318;SDS011;32042;50.916;2.926;2023-06-26T13:33:50;4.63;;;0.90;;
46318;SDS011;32042;50.916;2.926;2023-06-26T13:36:19;2.80;;;0.98;;
46318;SDS011;32042;50.916;2.926;2023-06-26T13:38:46;1.88;;;1.00;;
46318;SDS011;32042;50.916;2.926;2023-06-26T13:41:14;4.90;;;0.77;;
46318;SDS011;32042;50.916;2.926;2023-06-26T13:43:40;1.73;;;0.90;;
46318;SDS011;32042;50.916;2.926;2023-06-26T13:46:06;2.42;;;0.82;;
46318;SDS011;32042;50.916;2.926;2023-06-26T13:48:32;1.63;;;0.82;;
46318;SDS011;32042;50.916;2.926;2023-06-26T13:50:58;2.17;;;0.88;;
46318;SDS011;32042;50.916;2.926;2023-06-26T13:53:24;1.60;;;0.90;;
46318;SDS011;32042;50.916;2.926;2023-06-26T13:55:50;1.25;;;0.80;;
46318;SDS011;32042;50.916;2.926;2023-06-26T13:58:16;1.48;;;0.80;;
46318;SDS011;32042;50.916;2.926;2023-06-26T14:00:42;1.42;;;0.80;;
46318;SDS011;32042;50.916;2.926;2023-06-26T14:03:09;4.80;;;0.98;;
46318;SDS011;32042;50.916;2.926;2023-06-26T14:05:35;5.28;;;1.08;;
46318;SDS011;32042;50.916;2.926;2023-06-26T14:08:03;3.03;;;0.93;;
46318;SDS011;32042;50.916;2.926;2023-06-26T14:10:30;4.95;;;1.35;;
46318;SDS011;32042;50.916;2.926;2023-06-26T14:12:58;2.53;;;1.08;;
46318;SDS011;32042;50.916;2.926;2023-06-26T14:15:24;2.60;;;1.38;;
46318;SDS011;32042;50.916;2.926;2023-06-26T14:17:50;3.92;;;1.45;;
46318;SDS011;32042;50.916;2.926;2023-06-26T14:20:16;8.70;;;2.72;;
46318;SDS011;32042;50.916;2.926;2023-06-26T14:22:42;6.18;;;1.90;;
46318;SDS011;32042;50.916;2.926;2023-06-26T14:25:11;4.07;;;1.20;;
46318;SDS011;32042;50.916;2.926;2023-06-26T14:27:38;3.15;;;1.20;;
46318;SDS011;32042;50.916;2.926;2023-06-26T14:30:04;8.05;;;1.33;;
46318;SDS011;32042;50.916;2.926;2023-06-26T14:32:30;3.42;;;1.13;;
46318;SDS011;32042;50.916;2.926;2023-06-26T14:34:56;3.50;;;1.35;;
46318;SDS011;32042;50.916;2.926;2023-06-26T14:37:22;2.55;;;1.10;;
46318;SDS011;32042;50.916;2.926;2023-06-26T14:39:48;4.75;;;1.23;;
46318;SDS011;32042;50.916;2.926;2023-06-26T14:42:15;3.22;;;1.15;;
46318;SDS011;32042;50.916;2.926;2023-06-26T14:44:40;5.00;;;1.23;;
46318;SDS011;32042;50.916;2.926;2023-06-26T14:47:06;3.08;;;1.20;;
46318;SDS011;32042;50.916;2.926;2023-06-26T14:49:32;3.50;;;0.93;;